This is the latest recevied weather packets stored in our database for station/object N8WEL. If no packets are shown the sender has not sent any weather packets the latest 10 day(s).
| Time | Temp. | Humidity | Pressure | Rain* | Wind** | Luminosity | Snow |
|---|---|---|---|---|---|---|---|
| 1777604589 | 4.44° C | 88% | 1014.6 hPa | 0 mm | - | - | - |
| 1777604059 | 4.44° C | 87% | 1014.5 hPa | 0 mm | - | - | - |
| 1777603758 | 4.44° C | 86% | 1014.5 hPa | 0 mm | - | - | - |
| 1777603460 | 4.44° C | 86% | 1014.6 hPa | 0 mm | - | - | - |
| 1777603156 | 5° C | 85% | 1014.6 hPa | 0 mm | - | - | - |
| 1777602856 | 5° C | 85% | 1014.6 hPa | 0 mm | - | - | - |
| 1777602556 | 5° C | 84% | 1014.4 hPa | 0 mm | - | - | - |
| 1777602278 | 5° C | 84% | 1014.3 hPa | 0 mm | - | - | - |
| 1777601960 | 5° C | 85% | 1014.2 hPa | 0 mm | - | - | - |
| 1777601707 | 5.56° C | 84% | 1014.4 hPa | 0 mm | - | - | - |
| 1777601408 | 5.56° C | 83% | 1014.4 hPa | 0 mm | - | - | - |
| 1777601093 | 5.56° C | 83% | 1014.5 hPa | 0 mm | - | - | - |
| 1777600763 | 5.56° C | 82% | 1014.5 hPa | 0 mm | - | - | - |
| 1777600272 | 6.11° C | 81% | 1014.5 hPa | 0 mm | - | - | - |
| 1777599990 | 6.11° C | 80% | 1014.4 hPa | 0 mm | - | - | - |
| 1777599755 | 6.11° C | 79% | 1014.3 hPa | 0 mm | - | - | - |
| 1777599442 | 6.67° C | 77% | 1014.4 hPa | 0 mm | - | - | - |
| 1777599042 | 6.67° C | 77% | 1014.3 hPa | 0 mm | - | - | - |
| 1777598722 | 6.67° C | 75% | 1014.2 hPa | 0 mm | - | - | - |
| 1777598242 | 7.22° C | 73% | 1014.2 hPa | 0 mm | - | - | - |
| 1777597904 | 7.78° C | 72% | 1014.2 hPa | 0 mm | - | - | - |
| 1777597577 | 7.78° C | 72% | 1014.1 hPa | 0 mm | - | - | - |
| 1777597330 | 8.33° C | 69% | 1014.1 hPa | 0 mm | - | - | - |
| 1777596997 | 8.33° C | 68% | 1014 hPa | 0 mm | - | - | - |
| 1777596488 | 9.44° C | 64% | 1013.8 hPa | 0 mm | - | - | - |
* Rain latest hour (hover to see other rain measurements)
** Current wind speed in m/s (hover to see current wind gust speed)